メインページ
METAR-TAF:

METAR-TAF

空港 :

チャーチル, マニトバ州, カナダ

緯度: 58-44N, 経度: 094-04W, 海抜: 28m

現時点の気象観測

当レポートは1時間10分前の11:00(UTC)に作成
北西の風 12kt
気温 -28°C
湿度 75%
気圧 1029 hPa
視程: 24.1km
晴天

METAR: CYYQ 241100Z 31012KT 15SM SKC M28/M31 A3038 RMK SLP295

時間: 07:10 (12:10 UTC)

予報

当レポートは32分前の11:38(UTC)に作成
予報は24日の 12時(UTC)から 25日の 12時(UTC)まで有効
西/北西の風 12kt
視程: 10km
晴天
24日の 1800時(UTC)から
西の風 10kt
視程: 10km
晴天
24日の 22時(UTC)から 24日の 24時(UTC)まで徐々に
西/南西の風 6kt
25日の 04時(UTC)から 25日の 06時(UTC)まで徐々に
の風 8kt

TAF: CYYQ 241138Z 2412/2512 30012KT P6SM SKC FM241800 28010KT P6SM SKC BECMG 2422/2424 24006KT BECMG 2504/2506 18008KT RMK NXT FCST BY 241800Z

4,000以上の空港の気象観測と天気予報(METAR報とTAF報)

利用可能な観測所は地図上に黄色い丸と赤い丸で示す。

丸の上にカーソルを重ねると観測所名を参照できる。

次にクリックすると気象観測と天気予報を参照できる。

マップの切り替え:黒色「×」印の緑ボタンをクリックして拡大、「-」印の緑ボタンをクリックして縮小、緑色の三角印をクリックして隣りの地図に切り替え


METAR-TAF: